createdAt,value
2022-12-09T00:01:48.580Z,23.27
2022-12-09T00:05:53.172Z,21.90
2022-12-09T00:10:29.930Z,24.10
2022-12-09T00:14:32.952Z,22.60
2022-12-09T00:18:37.073Z,21.87
2022-12-09T00:22:41.547Z,23.17
2022-12-09T00:26:45.179Z,25.00
2022-12-09T00:31:21.733Z,22.87
2022-12-09T00:35:25.175Z,24.20
2022-12-09T00:39:29.966Z,24.37
2022-12-09T00:43:33.529Z,22.90
2022-12-09T00:48:07.807Z,22.67
2022-12-09T00:52:10.901Z,24.37
2022-12-09T00:56:15.917Z,23.97
2022-12-09T01:00:49.612Z,27.23
2022-12-09T01:04:53.387Z,23.83
2022-12-09T01:09:30.298Z,23.27
2022-12-09T01:13:34.985Z,23.77
2022-12-09T01:17:38.737Z,24.50
2022-12-09T01:21:41.936Z,26.10
2022-12-09T01:25:44.975Z,25.43
2022-12-09T01:30:23.224Z,24.77
2022-12-09T01:34:26.787Z,24.10
2022-12-09T01:38:30.012Z,24.03
2022-12-09T01:42:35.574Z,23.60
2022-12-09T01:46:40.224Z,24.27
2022-12-09T01:50:47.430Z,25.27
2022-12-09T01:55:20.999Z,24.37
2022-12-09T01:59:26.012Z,23.40
2022-12-09T02:03:30.751Z,24.77
2022-12-09T02:07:40.853Z,25.03
2022-12-09T02:11:57.782Z,26.20
2022-12-09T02:16:06.769Z,26.20
2022-12-09T02:20:20.498Z,25.33
2022-12-09T02:24:29.604Z,26.03
2022-12-09T02:28:55.796Z,25.80
2022-12-09T02:33:32.017Z,20.20
2022-12-09T02:37:41.820Z,24.47
2022-12-09T02:41:48.369Z,25.20
2022-12-09T02:45:52.941Z,26.73
2022-12-09T02:50:28.639Z,25.50
2022-12-09T02:54:35.707Z,25.80
2022-12-09T02:58:38.772Z,26.10
2022-12-09T03:02:45.750Z,26.03
2022-12-09T03:06:53.691Z,24.27
2022-12-09T03:11:02.287Z,26.03
2022-12-09T03:15:11.350Z,26.10
2022-12-09T03:19:21.584Z,26.67
2022-12-09T03:23:29.043Z,26.10
2022-12-09T03:27:38.555Z,26.53
2022-12-09T03:31:42.277Z,26.00
2022-12-09T03:35:50.331Z,25.93
2022-12-09T03:39:55.386Z,25.27
2022-12-09T03:44:08.541Z,27.10
2022-12-09T03:48:13.209Z,25.70
2022-12-09T03:52:21.785Z,25.03
2022-12-09T03:56:28.354Z,25.87
2022-12-09T04:00:38.098Z,25.37
2022-12-09T04:04:42.738Z,23.20
2022-12-09T04:08:46.451Z,25.63
2022-12-09T04:12:49.545Z,25.37
2022-12-09T04:16:54.280Z,25.00
2022-12-09T04:20:57.720Z,23.60
2022-12-09T04:25:00.895Z,25.27
2022-12-09T04:29:04.037Z,25.33
2022-12-09T04:33:08.653Z,23.93
2022-12-09T04:37:13.143Z,24.67
2022-12-09T04:41:16.955Z,25.57
2022-12-09T04:45:20.270Z,24.70
2022-12-09T04:49:25.010Z,25.23
2022-12-09T04:53:28.653Z,24.77
2022-12-09T04:57:31.841Z,25.97
2022-12-09T05:01:35.618Z,25.47
2022-12-09T05:05:44.636Z,25.00
2022-12-09T05:09:48.718Z,24.13
2022-12-09T05:13:52.518Z,23.80
2022-12-09T05:17:55.819Z,23.97
2022-12-09T05:22:01.152Z,24.63
2022-12-09T05:26:05.192Z,22.77
2022-12-09T05:30:10.160Z,31.00
2022-12-09T05:34:13.743Z,25.27
2022-12-09T05:38:26.359Z,23.47
2022-12-09T05:42:29.481Z,28.87
2022-12-09T05:46:32.980Z,27.67
2022-12-09T05:50:36.622Z,26.27
2022-12-09T05:54:41.087Z,24.40
2022-12-09T05:58:46.317Z,28.47
2022-12-09T06:02:49.590Z,22.00
2022-12-09T06:06:53.592Z,25.73
2022-12-09T06:10:58.394Z,28.30
2022-12-09T06:15:02.078Z,22.30
2022-12-09T06:19:06.147Z,23.50
2022-12-09T06:23:10.258Z,28.33
2022-12-09T06:27:15.176Z,25.07
2022-12-09T06:31:18.951Z,23.83
2022-12-09T06:35:22.825Z,23.80
2022-12-09T06:39:26.251Z,21.80
2022-12-09T06:43:31.188Z,27.70
2022-12-09T06:47:34.613Z,23.07
2022-12-09T06:51:38.105Z,24.57
2022-12-09T06:55:41.570Z,24.50
2022-12-09T06:59:46.339Z,21.53
2022-12-09T07:03:51.429Z,22.40
2022-12-09T07:07:55.439Z,23.27
2022-12-09T07:11:58.751Z,21.80
2022-12-09T07:16:03.792Z,19.67
2022-12-09T07:20:08.642Z,22.07
2022-12-09T07:24:13.336Z,20.53
2022-12-09T07:28:16.812Z,21.50
2022-12-09T07:32:21.405Z,18.63
2022-12-09T07:36:26.511Z,23.37
2022-12-09T07:40:29.667Z,20.53
2022-12-09T07:44:33.138Z,23.67
2022-12-09T07:48:37.826Z,25.50
2022-12-09T07:52:41.575Z,20.20
2022-12-09T07:56:45.659Z,19.33
2022-12-09T08:00:49.128Z,20.67
2022-12-09T08:04:54.286Z,18.90
2022-12-09T08:08:59.655Z,19.23
2022-12-09T08:13:03.146Z,20.13
2022-12-09T08:17:06.526Z,19.53
2022-12-09T08:21:13.212Z,19.40
2022-12-09T08:25:16.806Z,18.80
2022-12-09T08:29:20.790Z,16.33
2022-12-09T08:33:24.514Z,19.10
2022-12-09T08:37:29.252Z,15.93
2022-12-09T08:41:38.462Z,20.50
2022-12-09T08:45:43.412Z,17.47
2022-12-09T08:49:46.833Z,16.10
2022-12-09T08:53:51.261Z,20.70
2022-12-09T08:57:54.723Z,15.67
2022-12-09T09:01:57.945Z,19.93
2022-12-09T09:06:10.527Z,18.70
2022-12-09T09:10:16.360Z,16.03
2022-12-09T09:14:50.454Z,12.77
2022-12-09T09:19:27.861Z,19.50
2022-12-09T09:23:31.383Z,17.60
2022-12-09T09:27:37.347Z,17.93
2022-12-09T09:32:11.638Z,18.83
2022-12-09T09:36:45.648Z,16.40
2022-12-09T09:41:22.788Z,15.97
2022-12-09T09:45:59.669Z,19.60
2022-12-09T09:50:37.000Z,19.20
2022-12-09T09:55:11.106Z,16.57
2022-12-09T09:59:51.635Z,16.17
2022-12-09T10:09:18.943Z,15.10
2022-12-09T10:13:50.532Z,16.90
2022-12-09T10:18:22.925Z,14.80
2022-12-09T10:23:00.092Z,16.90
2022-12-09T10:27:38.192Z,15.73
2022-12-09T10:32:08.948Z,15.67
2022-12-09T10:36:27.748Z,14.17
2022-12-09T10:40:57.952Z,15.20
2022-12-09T10:45:45.702Z,15.80
2022-12-09T10:50:02.988Z,14.43
2022-12-09T10:54:40.319Z,15.43
2022-12-09T10:59:19.729Z,15.73
2022-12-09T11:03:54.783Z,13.53
2022-12-09T11:08:33.522Z,14.37
2022-12-09T11:13:09.851Z,16.57
2022-12-09T11:17:43.914Z,14.20
2022-12-09T11:22:24.228Z,13.23
2022-12-09T11:26:35.841Z,14.27
2022-12-09T11:30:57.556Z,15.07
2022-12-09T11:35:41.836Z,15.50
2022-12-09T11:39:50.646Z,16.40
2022-12-09T11:43:57.955Z,14.53
2022-12-09T11:48:34.982Z,15.23
2022-12-09T11:53:16.282Z,12.70
2022-12-09T11:57:46.518Z,13.27
2022-12-09T12:01:55.521Z,11.03
2022-12-09T12:06:01.522Z,17.17
2022-12-09T12:10:16.286Z,14.47
2022-12-09T12:14:24.039Z,11.00
2022-12-09T12:18:34.006Z,12.40
2022-12-09T12:23:07.498Z,11.97
2022-12-09T12:27:24.677Z,10.87
2022-12-09T12:31:41.579Z,12.63
2022-12-09T12:36:12.856Z,12.90
2022-12-09T12:40:40.860Z,11.63
2022-12-09T12:45:36.642Z,11.20
2022-12-09T12:50:03.536Z,12.13
2022-12-09T12:54:16.999Z,11.33
2022-12-09T12:58:34.188Z,12.27
2022-12-09T13:02:45.702Z,9.80
2022-12-09T13:07:43.713Z,13.23
2022-12-09T13:12:00.218Z,11.80
2022-12-09T13:16:27.708Z,11.60
2022-12-09T13:20:36.163Z,10.73
2022-12-09T13:24:45.092Z,12.77
2022-12-09T13:28:56.153Z,11.03
2022-12-09T13:33:36.370Z,10.90
2022-12-09T13:37:57.917Z,10.60
2022-12-09T13:42:18.396Z,10.80
2022-12-09T13:46:25.292Z,11.00
2022-12-09T13:50:33.420Z,11.77
2022-12-09T13:54:46.301Z,10.03
2022-12-09T13:59:11.946Z,10.73
2022-12-09T14:03:28.459Z,9.40
2022-12-09T14:07:36.918Z,10.97
2022-12-09T14:11:47.511Z,9.27
2022-12-09T14:16:15.075Z,11.03
2022-12-09T14:20:31.784Z,11.27
2022-12-09T14:24:36.741Z,11.53
2022-12-09T14:28:54.062Z,11.20
2022-12-09T14:32:58.519Z,11.80
2022-12-09T14:37:38.780Z,12.57
2022-12-09T14:41:50.438Z,11.03
2022-12-09T14:45:58.029Z,9.63
2022-12-09T14:50:08.899Z,10.07
2022-12-09T14:54:19.901Z,10.57
2022-12-09T14:58:24.490Z,9.23
2022-12-09T15:03:30.818Z,10.73
2022-12-09T15:07:22.978Z,11.93
2022-12-09T15:11:31.511Z,12.23
2022-12-09T15:15:37.146Z,11.13
2022-12-09T15:20:21.338Z,11.20
2022-12-09T15:24:50.602Z,10.67
2022-12-09T15:28:57.345Z,8.93
2022-12-09T15:33:00.810Z,8.77
2022-12-09T15:37:10.047Z,11.53
2022-12-09T15:42:01.369Z,10.30
2022-12-09T15:46:06.771Z,9.57
2022-12-09T15:50:18.429Z,8.43
2022-12-09T15:54:26.407Z,9.07
2022-12-09T15:58:35.218Z,10.10
2022-12-09T16:03:06.049Z,10.57
2022-12-09T16:07:12.904Z,10.20
2022-12-09T16:11:36.180Z,11.73
2022-12-09T16:15:51.409Z,10.50
2022-12-09T16:19:54.990Z,9.97
2022-12-09T16:24:11.434Z,10.20
2022-12-09T16:28:21.533Z,10.10
2022-12-09T16:32:51.558Z,10.17
2022-12-09T16:36:56.238Z,9.57
2022-12-09T16:41:11.507Z,10.80
2022-12-09T16:45:37.083Z,10.90
2022-12-09T16:49:41.299Z,11.03
2022-12-09T16:53:46.098Z,11.43
2022-12-09T16:57:51.911Z,11.70
2022-12-09T17:01:55.551Z,11.13
2022-12-09T17:05:58.720Z,11.87
2022-12-09T17:10:01.736Z,11.53
2022-12-09T17:14:39.908Z,11.50
2022-12-09T17:18:42.939Z,12.17
2022-12-09T17:22:46.017Z,12.90
2022-12-09T17:26:49.045Z,12.33
2022-12-09T17:30:53.461Z,11.60
2022-12-09T17:34:56.571Z,11.77
2022-12-09T17:39:02.515Z,13.23
2022-12-09T17:43:05.617Z,12.70
2022-12-09T17:47:10.024Z,13.07
2022-12-09T17:51:14.999Z,14.13
2022-12-09T17:55:18.097Z,12.40
2022-12-09T17:59:21.086Z,13.77
2022-12-09T18:03:53.824Z,12.47
2022-12-09T18:07:48.776Z,12.20
2022-12-09T18:11:52.695Z,12.10
2022-12-09T18:15:55.702Z,13.20
2022-12-09T18:20:00.203Z,13.63
2022-12-09T18:24:03.246Z,13.10
2022-12-09T18:28:06.629Z,14.47
2022-12-09T18:32:40.431Z,14.37
2022-12-09T18:36:45.075Z,15.90
2022-12-09T18:41:02.070Z,13.80
2022-12-09T18:45:05.591Z,13.30
2022-12-09T18:49:11.734Z,12.17
2022-12-09T18:53:16.568Z,11.97
2022-12-09T18:57:19.640Z,12.30
2022-12-09T19:01:25.773Z,13.43
2022-12-09T19:05:28.893Z,13.47
2022-12-09T19:09:34.960Z,13.77
2022-12-09T19:14:09.179Z,15.13
2022-12-09T19:18:12.332Z,16.30
2022-12-09T19:22:15.425Z,14.37
2022-12-09T19:26:22.238Z,13.70
2022-12-09T19:30:25.297Z,14.27
2022-12-09T19:34:30.407Z,13.67
2022-12-09T19:38:33.415Z,13.13
2022-12-09T19:42:39.843Z,13.10
2022-12-09T19:46:44.217Z,13.93
2022-12-09T19:50:47.630Z,13.20
2022-12-09T19:54:50.667Z,13.87
2022-12-09T19:58:56.042Z,12.37
2022-12-09T20:03:00.199Z,13.97
2022-12-09T20:07:07.631Z,13.53
2022-12-09T20:11:13.863Z,13.00
2022-12-09T20:15:18.496Z,13.93
2022-12-09T20:19:21.546Z,14.40
2022-12-09T20:23:24.577Z,14.43
2022-12-09T20:27:27.687Z,13.60
2022-12-09T20:31:33.710Z,13.90
2022-12-09T20:35:37.778Z,14.53
2022-12-09T20:40:14.719Z,12.77
2022-12-09T20:44:20.079Z,13.13
2022-12-09T20:48:24.497Z,14.63
2022-12-09T20:52:27.660Z,14.47
2022-12-09T20:56:31.253Z,14.40
2022-12-09T21:00:34.254Z,13.90
2022-12-09T21:04:38.957Z,15.37
2022-12-09T21:09:18.820Z,14.07
2022-12-09T21:13:23.290Z,14.73
2022-12-09T21:17:26.415Z,15.33
2022-12-09T21:21:33.631Z,15.93
2022-12-09T21:25:36.929Z,19.97
2022-12-09T21:29:40.747Z,15.33
2022-12-09T21:34:14.823Z,13.43
2022-12-09T21:38:19.204Z,14.67
2022-12-09T21:42:22.501Z,15.03
2022-12-09T21:46:27.210Z,14.13
2022-12-09T21:50:30.353Z,15.93
2022-12-09T21:54:34.964Z,15.47
2022-12-09T21:59:12.260Z,14.37
2022-12-09T22:03:15.257Z,13.83
2022-12-09T22:07:18.423Z,14.40
2022-12-09T22:11:25.363Z,14.40
2022-12-09T22:15:56.213Z,14.87
2022-12-09T22:20:33.721Z,14.80
2022-12-09T22:24:22.593Z,13.67
2022-12-09T22:28:27.145Z,13.73
2022-12-09T22:32:30.985Z,13.70
2022-12-09T22:36:36.998Z,14.63
2022-12-09T22:40:40.179Z,14.00
2022-12-09T22:44:44.638Z,14.73
2022-12-09T22:48:48.369Z,17.23
2022-12-09T22:52:51.681Z,15.07
2022-12-09T22:56:55.078Z,16.40
2022-12-09T23:00:59.517Z,15.33
2022-12-09T23:05:02.569Z,15.70
2022-12-09T23:09:06.545Z,15.23
2022-12-09T23:13:09.830Z,16.67
2022-12-09T23:17:14.268Z,16.57
2022-12-09T23:21:47.891Z,18.70
2022-12-09T23:25:53.853Z,16.40
2022-12-09T23:29:56.872Z,16.57
2022-12-09T23:34:02.355Z,16.47
2022-12-09T23:38:05.808Z,18.40
2022-12-09T23:42:08.866Z,18.20
2022-12-09T23:46:15.913Z,18.33
2022-12-09T23:50:20.766Z,17.13
2022-12-09T23:54:23.856Z,18.67
2022-12-09T23:58:26.964Z,18.40
